Main page
METAR-TAF:

METAR-TAF

Airports :

Augsburg, Germany

Augsburg Airport

latitude: 48-26N, longitude: 010-56E, elevation: 461 m

Current weather observation

The report was made 19 minutes ago, at 02:20 UTC
Wind 16 kt from the West/Southwest
Temperature 12°C
Humidity 94%
Pressure 1005 hPa
Visibility: 4200 m

METAR: EDMA 260220Z AUTO 25016KT 4200 // SCT012/// OVC020/// 12/11 Q1005

Time: 04:39 (02:39 UTC)

Forecast

The report was made 9 hours and 39 minutes ago, at 17:00 UTC
Forecast valid from 25 at 18 UTC to 26 at 03 UTC
Wind 10 kt from the West/Southwest
Visibility: 9000 m
Scattered clouds at a height of 1200 ft
Broken clouds at a height of 2000 ft
Temporary
from 25 at 18 UTC to 26 at 03 UTC
Visibility: 4000 m
Broken clouds at a height of 800 ft
Overcast at a height of 1500 ft
rain

TAF: EDMA 251700Z 2518/2603 24010KT 9000 SCT012 BKN020 TEMPO 2518/2603 4000 RA BKN008 OVC015

Weather observations and forecasts of more than 4000 airports (METAR and TAF reports).

The available stations are represented by yellow and red dots on the map.

Hover mouse over dot to see the name of the station.

Then click to see weather observations and forecasts.

To change the map : click on the green buttons with a black cross to zoom in, on the green button with a dash to zoom out, or on the green arrows for adjacent maps.


METAR-TAF: